首页
METAR-TAF:

METAR-TAF

机场 :

科威特國際機場

科威特, 科威特

纬度: 29-13N, 经度: 047-59E, 海拔: 55米

当前天气观测

该预报发布于44分钟前的08:00 UTC
风速16节,风向北转西北
温度 43°C
湿度 12%
气压 998 hPa
能见度10公里或以上
1500米以下无云,无积雨云

METAR: OKBK 140800Z 33016KT CAVOK 43/07 Q0998 NOSIG

时间: 11:44 (08:44 UTC)

预报

该预报发布于3小时和59分钟前的04:45 UTC
预报有效从14日的 06点(UTC)到 15日的 12点(UTC)
风速10节,风向北转西北,有时为20节阵风
能見度: 7000
天空无云

TAF: OKBK 140445Z 1406/1512 34010G20KT 7000 SKC

超过4000个机场的气象观测和天气预报(METAR&TAF报告)。

可查询的气象台以黄色和红色小点在地图上表示。

将鼠标移到小点上方,可查看气象台名称。

然后点击查看天气观测和预报。

如需切换地图:点击带黑十字的绿色按钮放大地图;点击带横线的绿色按钮缩小地图;或者点击绿色箭头查看邻近地区的地图。


METAR-TAF: